createdAt,value
2018-09-17T00:00:17.434Z,94.30
2018-09-17T00:02:51.773Z,94.10
2018-09-17T00:05:26.159Z,94.10
2018-09-17T00:08:00.602Z,94.30
2018-09-17T00:10:35.014Z,94.30
2018-09-17T00:13:09.330Z,94.50
2018-09-17T00:15:43.698Z,94.70
2018-09-17T00:18:18.014Z,94.40
2018-09-17T00:20:52.358Z,94.50
2018-09-17T00:23:26.553Z,94.30
2018-09-17T00:26:01.255Z,94.30
2018-09-17T00:28:35.546Z,94.30
2018-09-17T00:31:09.862Z,94.50
2018-09-17T00:33:44.089Z,94.50
2018-09-17T00:36:18.311Z,94.50
2018-09-17T00:38:52.550Z,94.50
2018-09-17T00:41:26.963Z,94.40
2018-09-17T00:44:01.299Z,94.60
2018-09-17T00:46:35.679Z,94.80
2018-09-17T00:49:10.128Z,94.50
2018-09-17T00:51:44.415Z,94.70
2018-09-17T00:54:19.325Z,94.50
2018-09-17T00:56:53.526Z,94.70
2018-09-17T00:59:27.838Z,94.70
2018-09-17T01:02:02.124Z,94.80
2018-09-17T01:04:36.481Z,94.70
2018-09-17T01:07:10.910Z,94.80
2018-09-17T01:09:45.415Z,94.70
2018-09-17T01:12:19.563Z,94.80
2018-09-17T01:14:53.855Z,94.80
2018-09-17T01:17:28.077Z,94.90
2018-09-17T01:20:02.372Z,94.80
2018-09-17T01:22:36.643Z,95.00
2018-09-17T01:25:10.961Z,95.00
2018-09-17T01:27:45.240Z,95.30
2018-09-17T01:30:19.612Z,95.30
2018-09-17T01:32:54.002Z,95.50
2018-09-17T01:35:28.322Z,94.90
2018-09-17T01:38:02.732Z,95.20
2018-09-17T01:40:37.224Z,95.30
2018-09-17T01:43:11.437Z,95.50
2018-09-17T01:45:45.733Z,95.50
2018-09-17T01:48:19.994Z,95.90
2018-09-17T01:50:54.426Z,96.40
2018-09-17T01:53:28.622Z,96.40
2018-09-17T01:56:03.050Z,96.60
2018-09-17T01:58:37.340Z,96.80
2018-09-17T02:01:11.678Z,96.70
2018-09-17T02:03:46.015Z,96.80
2018-09-17T02:06:20.314Z,96.70
2018-09-17T02:08:54.830Z,96.40
2018-09-17T02:11:29.240Z,96.40
2018-09-17T02:14:03.501Z,96.40
2018-09-17T02:16:37.883Z,96.10
2018-09-17T02:19:12.190Z,95.90
2018-09-17T02:21:46.466Z,96.10
2018-09-17T02:24:20.843Z,96.10
2018-09-17T02:26:55.209Z,96.20
2018-09-17T02:29:29.695Z,96.40
2018-09-17T02:32:03.950Z,96.00
2018-09-17T02:34:38.251Z,96.00
2018-09-17T02:37:12.550Z,96.00
2018-09-17T02:39:46.906Z,96.10
2018-09-17T02:42:21.193Z,96.00
2018-09-17T02:44:55.549Z,95.70
2018-09-17T02:47:29.898Z,95.70
2018-09-17T02:50:04.413Z,95.50
2018-09-17T02:52:38.733Z,96.00
2018-09-17T02:55:13.034Z,95.90
2018-09-17T02:57:47.362Z,95.90
2018-09-17T03:00:21.717Z,96.00
2018-09-17T03:02:55.890Z,96.00
2018-09-17T03:05:30.283Z,96.00
2018-09-17T03:08:04.694Z,96.00
2018-09-17T03:10:38.933Z,96.10
2018-09-17T03:13:13.214Z,96.40
2018-09-17T03:15:53.246Z,96.00
2018-09-17T03:18:39.130Z,95.90
2018-09-17T03:21:13.475Z,96.10
2018-09-17T03:23:47.657Z,95.90
2018-09-17T03:26:22.193Z,96.00
2018-09-17T03:28:56.363Z,96.00
2018-09-17T03:31:30.667Z,96.10
2018-09-17T03:34:04.861Z,96.00
2018-09-17T03:36:39.076Z,96.20
2018-09-17T03:39:13.255Z,96.10
2018-09-17T03:41:47.734Z,95.90
2018-09-17T03:44:22.327Z,95.60
2018-09-17T03:46:56.962Z,96.00
2018-09-17T03:49:31.189Z,96.20
2018-09-17T03:52:05.496Z,96.30
2018-09-17T03:54:39.761Z,96.20
2018-09-17T03:57:14.219Z,96.20
2018-09-17T03:59:48.460Z,96.40
2018-09-17T04:02:22.876Z,96.40
2018-09-17T04:04:58.642Z,96.50
2018-09-17T04:07:33.030Z,96.90
2018-09-17T04:10:07.314Z,96.10
2018-09-17T04:12:41.874Z,96.40
2018-09-17T04:15:16.066Z,96.40
2018-09-17T04:17:50.418Z,96.60
2018-09-17T04:20:25.010Z,96.40
2018-09-17T04:22:59.293Z,96.40
2018-09-17T04:25:33.635Z,96.50
2018-09-17T04:28:08.046Z,96.50
2018-09-17T04:30:42.358Z,96.50
2018-09-17T04:33:16.594Z,96.50
2018-09-17T04:35:51.020Z,96.50
2018-09-17T04:38:25.406Z,96.60
2018-09-17T04:40:59.834Z,96.50
2018-09-17T04:43:34.146Z,96.60
2018-09-17T04:46:08.441Z,96.60
2018-09-17T04:48:42.986Z,96.60
2018-09-17T04:51:17.306Z,96.40
2018-09-17T04:53:51.620Z,96.50
2018-09-17T04:56:26.098Z,96.60
2018-09-17T04:59:00.479Z,96.60
2018-09-17T05:01:34.877Z,96.60
2018-09-17T05:04:09.300Z,96.50
2018-09-17T05:06:43.970Z,96.60
2018-09-17T05:09:18.347Z,96.60
2018-09-17T05:11:52.679Z,96.60
2018-09-17T05:14:27.085Z,96.60
2018-09-17T05:17:01.462Z,96.80
2018-09-17T05:19:35.862Z,96.90
2018-09-17T05:22:10.269Z,97.00
2018-09-17T05:24:44.676Z,96.80
2018-09-17T05:27:19.090Z,96.70
2018-09-17T05:29:53.389Z,96.90
2018-09-17T05:32:27.726Z,96.80
2018-09-17T05:35:02.092Z,96.60
2018-09-17T05:37:36.512Z,96.80
2018-09-17T05:40:10.841Z,96.80
2018-09-17T05:42:45.206Z,97.00
2018-09-17T05:45:19.466Z,96.80
2018-09-17T05:47:53.769Z,96.70
2018-09-17T05:50:28.219Z,96.80
2018-09-17T05:53:02.425Z,97.10
2018-09-17T05:55:36.761Z,97.00
2018-09-17T05:58:11.062Z,96.80
2018-09-17T06:00:45.393Z,96.40
2018-09-17T06:03:19.731Z,96.00
2018-09-17T06:05:53.978Z,95.60
2018-09-17T06:08:28.282Z,95.60
2018-09-17T06:11:02.623Z,95.70
2018-09-17T06:13:36.906Z,95.60
2018-09-17T06:16:11.223Z,95.90
2018-09-17T06:18:45.827Z,94.90
2018-09-17T06:21:20.180Z,94.40
2018-09-17T06:23:54.478Z,94.50
2018-09-17T06:26:28.819Z,94.60
2018-09-17T06:29:03.069Z,94.50
2018-09-17T06:31:37.520Z,94.00
2018-09-17T06:34:11.794Z,93.80
2018-09-17T06:36:46.224Z,93.80
2018-09-17T06:39:20.550Z,94.00
2018-09-17T06:41:54.889Z,93.70
2018-09-17T06:44:29.089Z,93.90
2018-09-17T06:47:03.378Z,94.10
2018-09-17T06:49:37.657Z,94.10
2018-09-17T06:52:11.978Z,94.10
2018-09-17T06:54:46.257Z,94.20
2018-09-17T06:57:20.522Z,94.20
2018-09-17T06:59:54.842Z,93.70
2018-09-17T07:02:29.154Z,93.50
2018-09-17T07:05:03.494Z,93.10
2018-09-17T07:07:37.809Z,93.60
2018-09-17T07:10:12.030Z,93.40
2018-09-17T07:12:46.307Z,93.10
2018-09-17T07:15:20.627Z,93.00
2018-09-17T07:17:54.970Z,92.90
2018-09-17T07:20:29.177Z,93.00
2018-09-17T07:23:03.472Z,92.80
2018-09-17T07:25:37.918Z,92.30
2018-09-17T07:28:12.256Z,92.30
2018-09-17T07:30:46.592Z,92.20
2018-09-17T07:33:20.790Z,91.70
2018-09-17T07:35:55.066Z,91.40
2018-09-17T07:38:29.255Z,90.60
2018-09-17T07:41:03.413Z,90.60
2018-09-17T07:43:37.790Z,90.60
2018-09-17T07:46:12.129Z,89.50
2018-09-17T07:48:46.955Z,89.20
2018-09-17T07:51:21.286Z,88.30
2018-09-17T07:53:55.570Z,87.90
2018-09-17T07:56:30.083Z,86.60
2018-09-17T07:59:04.449Z,86.50
2018-09-17T08:01:38.762Z,86.60
2018-09-17T08:04:13.184Z,86.90
2018-09-17T08:06:47.462Z,86.20
2018-09-17T08:09:21.666Z,86.90
2018-09-17T08:11:55.971Z,86.00
2018-09-17T08:14:30.442Z,85.80
2018-09-17T08:17:05.221Z,86.10
2018-09-17T08:19:39.438Z,85.50
2018-09-17T08:22:13.621Z,85.00
2018-09-17T08:24:47.971Z,85.00
2018-09-17T08:27:22.358Z,84.70
2018-09-17T08:29:56.589Z,84.60
2018-09-17T08:32:31.029Z,84.00
2018-09-17T08:35:05.791Z,84.00
2018-09-17T08:37:39.944Z,82.50
2018-09-17T08:40:14.243Z,82.60
2018-09-17T08:42:48.542Z,82.80
2018-09-17T08:45:22.846Z,82.90
2018-09-17T08:47:57.235Z,82.50
2018-09-17T08:50:31.631Z,81.40
2018-09-17T08:53:06.420Z,81.60
2018-09-17T08:55:50.658Z,81.00
2018-09-17T08:58:30.034Z,80.50
2018-09-17T09:01:08.601Z,81.40
2018-09-17T09:03:48.572Z,79.40
2018-09-17T09:06:28.309Z,79.60
2018-09-17T09:09:03.301Z,77.40
2018-09-17T09:11:43.122Z,77.90
2018-09-17T09:14:22.803Z,77.90
2018-09-17T09:16:57.025Z,78.50
2018-09-17T09:19:31.424Z,78.80
2018-09-17T09:22:05.638Z,77.80
2018-09-17T09:24:39.842Z,77.40
2018-09-17T09:27:14.235Z,76.70
2018-09-17T09:29:48.558Z,77.20
2018-09-17T09:32:23.021Z,77.20
2018-09-17T09:34:57.207Z,76.10
2018-09-17T09:37:31.523Z,74.80
2018-09-17T09:40:05.738Z,74.10
2018-09-17T09:42:40.093Z,72.40
2018-09-17T09:45:15.349Z,72.20
2018-09-17T09:47:49.816Z,71.90
2018-09-17T09:50:24.128Z,71.10
2018-09-17T09:52:58.602Z,72.30
2018-09-17T09:55:32.842Z,69.60
2018-09-17T09:58:07.383Z,69.60
2018-09-17T10:00:47.230Z,69.00
2018-09-17T10:03:26.811Z,68.10
2018-09-17T10:06:00.955Z,69.20
2018-09-17T10:08:39.462Z,69.50
2018-09-17T10:11:19.146Z,69.90
2018-09-17T10:13:58.879Z,69.10
2018-09-17T10:16:33.024Z,68.60
2018-09-17T10:19:12.581Z,69.40
2018-09-17T10:21:46.761Z,68.70
2018-09-17T10:24:21.049Z,67.70
2018-09-17T10:26:55.409Z,68.10
2018-09-17T10:29:29.716Z,67.90
2018-09-17T10:32:04.110Z,68.20
2018-09-17T10:34:38.395Z,67.60
2018-09-17T10:37:12.709Z,66.10
2018-09-17T10:39:46.954Z,68.10
2018-09-17T10:42:21.248Z,65.80
2018-09-17T10:44:55.654Z,65.20
2018-09-17T10:47:30.048Z,64.80
2018-09-17T10:50:04.375Z,65.00
2018-09-17T10:52:39.066Z,65.00
2018-09-17T10:55:13.441Z,65.30
2018-09-17T10:57:47.919Z,65.80
2018-09-17T11:00:23.029Z,65.60
2018-09-17T11:02:57.210Z,66.40
2018-09-17T11:05:31.547Z,66.60
2018-09-17T11:08:05.983Z,65.90
2018-09-17T11:10:40.263Z,63.90
2018-09-17T11:13:14.549Z,65.80
2018-09-17T11:15:49.452Z,64.60
2018-09-17T11:18:23.827Z,64.70
2018-09-17T11:20:58.197Z,64.50
2018-09-17T11:23:32.478Z,63.70
2018-09-17T11:26:06.843Z,63.40
2018-09-17T11:28:41.166Z,64.20
2018-09-17T11:31:15.539Z,63.70
2018-09-17T11:33:49.937Z,61.70
2018-09-17T11:36:24.257Z,60.70
2018-09-17T11:38:58.720Z,62.60
2018-09-17T11:41:32.938Z,60.70
2018-09-17T11:44:07.214Z,59.80
2018-09-17T11:46:41.722Z,60.80
2018-09-17T11:49:16.035Z,60.00
2018-09-17T11:51:50.185Z,59.70
2018-09-17T11:54:24.458Z,59.30
2018-09-17T11:56:58.716Z,58.10
2018-09-17T11:59:33.018Z,58.40
2018-09-17T12:02:42.746Z,58.10
2018-09-17T12:05:22.829Z,57.90
2018-09-17T12:07:57.068Z,58.70
2018-09-17T12:10:31.450Z,58.00
2018-09-17T12:13:05.868Z,58.60
2018-09-17T12:15:41.358Z,57.90
2018-09-17T12:18:15.574Z,57.90
2018-09-17T12:20:50.046Z,57.70
2018-09-17T12:23:24.369Z,57.50
2018-09-17T12:25:58.637Z,56.40
2018-09-17T12:28:33.095Z,56.30
2018-09-17T12:31:07.503Z,56.70
2018-09-17T12:33:41.979Z,56.00
2018-09-17T12:36:16.495Z,55.10
2018-09-17T12:38:50.748Z,55.20
2018-09-17T12:41:25.034Z,56.00
2018-09-17T12:43:59.334Z,54.50
2018-09-17T12:46:33.543Z,54.90
2018-09-17T12:49:08.047Z,55.00
2018-09-17T12:51:42.374Z,54.50
2018-09-17T12:54:16.910Z,53.40
2018-09-17T12:56:51.322Z,54.20
2018-09-17T12:59:25.552Z,53.90
2018-09-17T13:01:59.961Z,52.80
2018-09-17T13:04:34.293Z,52.20
2018-09-17T13:07:08.649Z,52.40
2018-09-17T13:09:42.945Z,52.00
2018-09-17T13:12:17.213Z,51.60
2018-09-17T13:14:51.537Z,52.90
2018-09-17T13:17:25.952Z,52.00
2018-09-17T13:20:00.355Z,51.20
2018-09-17T13:22:34.614Z,51.90
2018-09-17T13:25:08.917Z,51.30
2018-09-17T13:27:43.165Z,51.70
2018-09-17T13:30:17.581Z,51.10
2018-09-17T13:32:51.824Z,50.10
2018-09-17T13:35:26.203Z,50.70
2018-09-17T13:38:00.534Z,50.00
2018-09-17T13:40:34.926Z,50.80
2018-09-17T13:43:09.391Z,50.00
2018-09-17T13:45:43.647Z,51.10
2018-09-17T13:48:17.883Z,51.00
2018-09-17T13:50:52.159Z,48.80
2018-09-17T13:53:26.495Z,48.60
2018-09-17T13:56:00.839Z,48.20
2018-09-17T13:58:35.152Z,47.00
2018-09-17T14:01:09.550Z,48.60
2018-09-17T14:03:43.894Z,48.00
2018-09-17T14:06:18.230Z,45.70
2018-09-17T14:08:52.514Z,45.40
2018-09-17T14:11:26.897Z,48.00
2018-09-17T14:14:01.195Z,47.70
2018-09-17T14:16:36.031Z,48.80
2018-09-17T14:19:10.245Z,48.40
2018-09-17T14:21:44.674Z,49.10
2018-09-17T14:24:18.883Z,49.40
2018-09-17T14:26:53.208Z,48.00
2018-09-17T14:29:27.375Z,47.90
2018-09-17T14:32:07.045Z,47.40
2018-09-17T14:34:41.658Z,47.70
2018-09-17T14:37:15.914Z,47.20
2018-09-17T14:39:50.331Z,46.20
2018-09-17T14:42:24.635Z,46.20
2018-09-17T14:44:58.973Z,47.10
2018-09-17T14:47:33.281Z,46.90
2018-09-17T14:50:07.523Z,47.00
2018-09-17T14:52:41.829Z,46.60
2018-09-17T14:55:16.133Z,46.80
2018-09-17T14:57:50.481Z,46.60
2018-09-17T15:00:24.686Z,47.30
2018-09-17T15:02:59.123Z,47.40
2018-09-17T15:05:33.391Z,46.60
2018-09-17T15:08:08.344Z,46.40
2018-09-17T15:10:42.399Z,47.40
2018-09-17T15:13:16.815Z,47.50
2018-09-17T15:15:55.208Z,48.10
2018-09-17T15:18:29.663Z,46.10
2018-09-17T15:21:03.906Z,45.40
2018-09-17T15:23:38.267Z,47.10
2018-09-17T15:26:12.499Z,46.20
2018-09-17T15:28:46.729Z,45.70
2018-09-17T15:31:21.206Z,45.40
2018-09-17T15:33:55.391Z,45.70
2018-09-17T15:36:29.760Z,45.90
2018-09-17T15:39:07.706Z,46.00
2018-09-17T15:41:42.136Z,45.10
2018-09-17T15:44:16.365Z,45.00
2018-09-17T15:46:50.640Z,46.00
2018-09-17T15:49:25.030Z,46.30
2018-09-17T15:51:59.493Z,47.00
2018-09-17T15:54:33.736Z,46.20
2018-09-17T15:57:08.068Z,47.00
2018-09-17T15:59:42.322Z,47.40
2018-09-17T16:02:17.311Z,47.00
2018-09-17T16:04:51.582Z,47.40
2018-09-17T16:07:26.769Z,46.80
2018-09-17T16:10:01.112Z,46.40
2018-09-17T16:12:35.793Z,49.70
2018-09-17T16:15:10.182Z,49.00
2018-09-17T16:17:44.665Z,50.10
2018-09-17T16:20:19.048Z,49.80
2018-09-17T16:22:53.575Z,50.90
2018-09-17T16:28:13.072Z,49.10
2018-09-17T16:30:49.373Z,49.60
2018-09-17T16:33:26.066Z,53.70
2018-09-17T16:36:00.338Z,53.90
2018-09-17T16:38:34.622Z,54.30
2018-09-17T16:41:16.044Z,56.00
2018-09-17T16:57:12.554Z,58.70
2018-09-17T16:59:46.842Z,59.60
2018-09-17T17:02:21.121Z,61.50
2018-09-17T17:04:55.457Z,62.70
2018-09-17T17:07:29.846Z,61.10
2018-09-17T17:10:04.361Z,63.00
2018-09-17T17:14:01.954Z,65.00
2018-09-17T17:16:36.354Z,65.60
2018-09-17T17:19:10.663Z,67.50
2018-09-17T17:21:47.183Z,67.20
2018-09-17T17:24:21.470Z,68.40
2018-09-17T17:26:56.856Z,71.70
2018-09-17T17:29:31.277Z,70.80
2018-09-17T17:32:05.506Z,69.00
2018-09-17T17:34:39.715Z,69.50
2018-09-17T17:37:14.107Z,69.40
2018-09-17T17:39:48.768Z,71.20
2018-09-17T17:42:22.815Z,72.50
2018-09-17T17:44:57.002Z,72.00
2018-09-17T17:47:31.505Z,72.50
2018-09-17T17:50:05.854Z,73.50
2018-09-17T17:52:40.664Z,74.50
2018-09-17T17:55:15.363Z,73.90
2018-09-17T17:57:49.966Z,73.00
2018-09-17T18:00:24.335Z,73.90
2018-09-17T18:02:58.730Z,73.90
2018-09-17T18:05:33.650Z,73.20
2018-09-17T18:08:07.842Z,74.00
2018-09-17T18:10:42.319Z,74.40
2018-09-17T18:13:16.555Z,73.90
2018-09-17T18:15:51.284Z,74.70
2018-09-17T18:18:26.684Z,75.30
2018-09-17T18:21:01.701Z,74.60
2018-09-17T18:23:36.478Z,75.60
2018-09-17T18:26:11.091Z,75.90
2018-09-17T18:28:45.418Z,76.30
2018-09-17T18:31:19.791Z,76.80
2018-09-17T18:33:54.279Z,76.40
2018-09-17T18:36:28.784Z,77.20
2018-09-17T18:39:03.984Z,77.80
2018-09-17T18:41:38.334Z,77.70
2018-09-17T18:44:12.530Z,76.60
2018-09-17T18:46:46.951Z,77.40
2018-09-17T18:49:21.261Z,77.90
2018-09-17T18:51:55.682Z,78.10
2018-09-17T18:54:30.026Z,78.50
2018-09-17T18:57:04.422Z,78.90
2018-09-17T18:59:38.886Z,78.20
2018-09-17T19:02:13.353Z,77.60
2018-09-17T19:04:47.695Z,78.00
2018-09-17T19:07:22.096Z,78.00
2018-09-17T19:09:56.446Z,78.30
2018-09-17T19:12:31.108Z,78.70
2018-09-17T19:15:10.896Z,79.50
2018-09-17T19:17:45.306Z,80.00
2018-09-17T19:20:19.612Z,79.90
2018-09-17T19:22:59.377Z,80.80
2018-09-17T19:25:33.552Z,80.60
2018-09-17T19:28:13.649Z,80.70
2018-09-17T19:30:48.446Z,81.20
2018-09-17T19:33:22.722Z,81.40
2018-09-17T19:35:57.535Z,81.60
2018-09-17T19:38:37.421Z,81.80
2018-09-17T19:41:11.665Z,82.70
2018-09-17T19:43:46.094Z,81.90
2018-09-17T19:46:20.730Z,81.90
2018-09-17T19:48:55.282Z,82.60
2018-09-17T19:51:35.053Z,82.90
2018-09-17T19:54:09.362Z,82.80
2018-09-17T19:56:43.609Z,81.40
2018-09-17T19:59:23.314Z,81.50
2018-09-17T20:01:57.756Z,81.70
2018-09-17T20:04:37.769Z,81.00
2018-09-17T20:07:12.130Z,82.00
2018-09-17T20:09:46.387Z,81.60
2018-09-17T20:12:20.674Z,82.40
2018-09-17T20:14:55.023Z,81.60
2018-09-17T20:17:29.350Z,82.10
2018-09-17T20:20:03.756Z,82.20
2018-09-17T20:22:37.978Z,82.80
2018-09-17T20:25:12.336Z,82.90
2018-09-17T20:27:46.915Z,83.20
2018-09-17T20:30:21.091Z,83.70
2018-09-17T20:32:55.390Z,83.70
2018-09-17T20:35:29.767Z,83.80
2018-09-17T20:38:04.242Z,83.60
2018-09-17T20:40:38.577Z,84.50
2018-09-17T20:43:12.846Z,83.60
2018-09-17T20:45:47.470Z,84.00
2018-09-17T20:48:21.787Z,83.50
2018-09-17T20:50:55.973Z,84.90
2018-09-17T20:53:30.386Z,84.90
2018-09-17T20:56:04.630Z,84.20
2018-09-17T20:58:39.042Z,84.80
2018-09-17T21:01:13.299Z,84.40
2018-09-17T21:03:47.786Z,84.40
2018-09-17T21:06:22.236Z,84.40
2018-09-17T21:08:56.523Z,84.60
2018-09-17T21:11:30.783Z,84.50
2018-09-17T21:14:05.524Z,85.20
2018-09-17T21:16:39.951Z,85.30
2018-09-17T21:19:14.270Z,85.10
2018-09-17T21:21:48.567Z,85.40
2018-09-17T21:24:22.974Z,85.10
2018-09-17T21:26:57.485Z,85.10
2018-09-17T21:29:31.838Z,84.50
2018-09-17T21:32:06.098Z,84.90
2018-09-17T21:34:40.718Z,84.30
2018-09-17T21:37:15.303Z,84.80
2018-09-17T21:39:49.802Z,84.80
2018-09-17T21:42:24.329Z,84.70
2018-09-17T21:44:58.557Z,84.70
2018-09-17T21:47:32.849Z,85.00
2018-09-17T21:50:07.179Z,85.70
2018-09-17T21:52:41.671Z,84.70
2018-09-17T21:55:15.911Z,85.20
2018-09-17T21:57:50.350Z,86.10
2018-09-17T22:00:24.934Z,85.00
2018-09-17T22:02:59.266Z,85.50
2018-09-17T22:05:33.591Z,85.20
2018-09-17T22:08:08.093Z,85.60
2018-09-17T22:10:42.789Z,85.10
2018-09-17T22:13:17.222Z,85.00
2018-09-17T22:15:51.913Z,85.70
2018-09-17T22:18:26.414Z,85.50
2018-09-17T22:21:00.719Z,85.50
2018-09-17T22:23:35.020Z,85.40
2018-09-17T22:26:09.583Z,84.40
2018-09-17T22:28:43.933Z,85.10
2018-09-17T22:31:18.302Z,85.20
2018-09-17T22:33:52.738Z,84.20
2018-09-17T22:36:27.066Z,85.50
2018-09-17T22:39:01.339Z,85.40
2018-09-17T22:41:35.926Z,85.90
2018-09-17T22:44:10.473Z,85.70
2018-09-17T22:46:44.927Z,85.70
2018-09-17T22:49:19.359Z,85.70
2018-09-17T22:51:53.868Z,85.50
2018-09-17T22:54:28.231Z,85.10
2018-09-17T22:57:02.661Z,85.70
2018-09-17T22:59:37.104Z,85.30
2018-09-17T23:02:11.417Z,86.10
2018-09-17T23:04:45.883Z,86.20
2018-09-17T23:07:20.384Z,86.10
2018-09-17T23:09:54.806Z,86.80
2018-09-17T23:12:29.142Z,86.90
2018-09-17T23:15:03.496Z,87.40
2018-09-17T23:17:37.778Z,87.70
2018-09-17T23:20:12.225Z,87.30
2018-09-17T23:22:46.622Z,87.80
2018-09-17T23:25:20.940Z,87.80
2018-09-17T23:27:55.322Z,88.20
2018-09-17T23:30:29.731Z,88.40
2018-09-17T23:33:04.197Z,88.20
2018-09-17T23:35:38.636Z,88.60
2018-09-17T23:38:13.045Z,88.70
2018-09-17T23:40:47.308Z,88.40
2018-09-17T23:43:22.071Z,88.30
2018-09-17T23:45:56.516Z,88.60
2018-09-17T23:48:30.790Z,88.90
2018-09-17T23:51:05.221Z,89.00
2018-09-17T23:53:39.766Z,89.00
2018-09-17T23:56:14.222Z,89.40
2018-09-17T23:58:48.491Z,89.40
